Time;durP1;ratioP1;P1;durP2;ratioP2;P2;SDS_P1;SDS_P2;PMS_P1;PMS_P2;Temp;Humidity;BMP_temperature;BMP_pressure;BME280_temperature;BME280_humidity;BME280_pressure;Samples;Min_cycle;Max_cycle;Signal;HPM_P1;HPM_P2
2021/03/22 00:00:21;;;;;;;14.10;7.00;;;2.40;99.90;;;;;;5096246;28;20448;-87
2021/03/22 00:02:49;;;;;;;16.93;6.33;;;2.40;99.90;;;;;;5096403;28;20448;-86
2021/03/22 00:05:16;;;;;;;16.50;6.47;;;2.30;99.90;;;;;;5095895;28;20966;-87
2021/03/22 00:07:42;;;;;;;9.07;4.70;;;2.30;99.90;;;;;;5095960;28;20895;-87
2021/03/22 00:10:09;;;;;;;24.53;6.47;;;2.20;99.90;;;;;;5096005;28;20447;-87
2021/03/22 00:12:35;;;;;;;15.27;6.43;;;2.20;99.90;;;;;;5095782;28;20488;-87
2021/03/22 00:15:03;;;;;;;16.03;7.13;;;2.20;99.90;;;;;;5096536;28;20444;-87
2021/03/22 00:17:30;;;;;;;13.73;5.90;;;2.10;99.90;;;;;;5095556;28;20983;-87
2021/03/22 00:19:57;;;;;;;22.60;7.07;;;2.10;99.90;;;;;;5095527;28;20444;-87
2021/03/22 00:22:23;;;;;;;19.13;6.73;;;2.10;99.90;;;;;;5095943;28;20865;-87
2021/03/22 00:24:50;;;;;;;24.83;6.57;;;2.10;99.90;;;;;;5095819;28;20423;-87
2021/03/22 00:27:16;;;;;;;17.27;6.43;;;2.10;99.90;;;;;;5095468;28;20468;-87
2021/03/22 00:29:42;;;;;;;16.53;5.70;;;2.20;99.90;;;;;;5095558;28;20862;-87
2021/03/22 00:32:09;;;;;;;15.60;6.40;;;2.20;99.90;;;;;;5095532;28;20479;-87
2021/03/22 00:34:35;;;;;;;15.13;5.73;;;2.30;99.90;;;;;;5095215;28;20935;-87
2021/03/22 00:37:03;;;;;;;10.67;4.60;;;2.40;99.90;;;;;;5095376;28;20475;-87
2021/03/22 00:39:29;;;;;;;18.43;5.57;;;2.50;99.90;;;;;;5095446;28;20857;-87
2021/03/22 00:41:55;;;;;;;21.97;6.30;;;2.50;99.90;;;;;;5095264;28;20440;-87
2021/03/22 00:44:22;;;;;;;17.27;6.13;;;2.60;99.90;;;;;;5095222;28;20444;-87
2021/03/22 00:46:48;;;;;;;15.50;5.40;;;2.60;99.90;;;;;;5095123;28;20482;-87
2021/03/22 00:49:14;;;;;;;13.97;5.80;;;2.70;99.90;;;;;;5095177;28;20447;-87
2021/03/22 00:51:41;;;;;;;13.80;5.47;;;2.70;99.90;;;;;;5095150;28;20484;-87
2021/03/22 00:54:08;;;;;;;17.50;5.70;;;2.70;99.90;;;;;;5095084;28;20448;-87
2021/03/22 00:56:34;;;;;;;16.17;5.77;;;2.80;99.90;;;;;;5094623;28;20484;-87
2021/03/22 00:59:00;;;;;;;23.10;5.80;;;2.80;99.90;;;;;;5095098;28;20418;-87
2021/03/22 01:01:26;;;;;;;11.33;4.93;;;2.90;99.90;;;;;;5095142;28;20440;-86
2021/03/22 01:03:52;;;;;;;19.23;4.87;;;2.90;99.90;;;;;;5101390;28;20448;-86
2021/03/22 01:06:19;;;;;;;16.50;5.53;;;2.90;99.90;;;;;;5096964;28;20440;-86
2021/03/22 01:08:45;;;;;;;16.33;4.93;;;3.00;99.90;;;;;;5096179;28;20448;-86
2021/03/22 01:11:14;;;;;;;23.13;5.87;;;2.90;99.90;;;;;;5095791;28;20900;-87
2021/03/22 01:13:43;;;;;;;12.83;5.47;;;2.90;99.90;;;;;;5095086;28;20946;-87
2021/03/22 01:16:10;;;;;;;14.87;5.40;;;2.90;99.90;;;;;;5094822;28;20448;-87
2021/03/22 01:18:40;;;;;;;10.73;5.47;;;2.90;99.90;;;;;;5094639;28;20468;-87
2021/03/22 01:21:10;;;;;;;15.80;5.30;;;2.90;99.90;;;;;;5094630;28;20424;-87
2021/03/22 01:23:37;;;;;;;7.90;4.07;;;2.90;99.90;;;;;;5094912;28;20440;-87
2021/03/22 01:26:05;;;;;;;13.70;4.60;;;2.90;99.90;;;;;;5094225;28;20474;-87
2021/03/22 01:28:32;;;;;;;16.90;5.00;;;2.90;99.90;;;;;;5094345;28;20460;-86
2021/03/22 01:31:00;;;;;;;17.33;5.97;;;2.90;99.90;;;;;;5094395;28;20444;-87
2021/03/22 01:33:29;;;;;;;11.17;5.40;;;3.00;99.90;;;;;;5094376;28;20456;-87
2021/03/22 01:35:59;;;;;;;17.00;5.50;;;3.00;99.90;;;;;;5094515;28;20444;-87
2021/03/22 01:38:26;;;;;;;10.00;4.90;;;3.00;99.90;;;;;;5094672;28;20467;-87
2021/03/22 01:41:05;;;;;;;13.23;5.07;;;3.00;99.90;;;;;;5094267;28;20459;-86
2021/03/22 01:43:55;;;;;;;15.30;5.30;;;3.00;99.90;;;;;;5094010;28;20428;-87
2021/03/22 01:46:22;;;;;;;12.47;4.90;;;3.00;99.90;;;;;;5054385;28;20463;-87
2021/03/22 01:48:49;;;;;;;10.90;4.53;;;3.00;99.90;;;;;;5093732;28;20965;-87
2021/03/22 01:51:16;;;;;;;15.13;5.97;;;3.00;99.90;;;;;;5093815;28;20488;-87
2021/03/22 01:53:42;;;;;;;15.57;5.40;;;3.00;99.90;;;;;;5094021;28;20946;-86
2021/03/22 01:56:13;;;;;;;20.30;5.63;;;3.00;99.90;;;;;;5093960;28;20898;-86
2021/03/22 01:58:40;;;;;;;18.00;5.27;;;2.90;99.90;;;;;;5094398;28;20466;-86
2021/03/22 02:01:07;;;;;;;14.47;4.57;;;2.90;99.90;;;;;;5094270;28;20424;-87
2021/03/22 02:03:33;;;;;;;11.63;5.20;;;3.00;99.90;;;;;;5093965;28;20439;-87
2021/03/22 02:06:00;;;;;;;13.43;4.73;;;2.90;99.90;;;;;;5093850;28;20447;-87
2021/03/22 02:08:31;;;;;;;13.93;4.57;;;2.90;99.90;;;;;;5093784;28;20841;-87
2021/03/22 02:10:58;;;;;;;11.13;4.70;;;3.00;99.90;;;;;;5093837;28;20436;-87
2021/03/22 02:13:27;;;;;;;17.90;4.63;;;3.00;99.90;;;;;;5093525;28;20436;-87
2021/03/22 02:16:02;;;;;;;12.27;4.60;;;3.00;99.90;;;;;;5093727;28;20468;-87
2021/03/22 02:18:33;;;;;;;18.87;4.77;;;3.00;99.90;;;;;;5093482;28;20471;-87
2021/03/22 02:21:33;;;;;;;12.10;4.33;;;3.00;99.90;;;;;;5093003;28;20432;-87
2021/03/22 02:24:46;;;;;;;13.03;3.80;;;3.00;99.90;;;;;;5086975;28;20477;-87
2021/03/22 02:27:45;;;;;;;10.17;3.47;;;2.90;99.90;;;;;;5093523;28;20873;-87
2021/03/22 02:30:54;;;;;;;21.50;5.40;;;2.90;99.90;;;;;;5093702;28;20494;-86
2021/03/22 02:33:57;;;;;;;9.73;3.80;;;3.00;99.90;;;;;;5083394;28;20444;-87
2021/03/22 02:36:29;;;;;;;8.23;3.07;;;3.00;99.90;;;;;;5093530;28;20493;-87
2021/03/22 02:38:57;;;;;;;12.07;3.50;;;3.00;99.90;;;;;;5093600;28;20436;-87
2021/03/22 02:41:28;;;;;;;13.60;3.80;;;3.00;99.90;;;;;;5093491;28;20428;-87
2021/03/22 02:44:03;;;;;;;9.13;3.90;;;3.00;99.90;;;;;;5093654;28;20432;-87
2021/03/22 02:46:30;;;;;;;9.67;3.40;;;3.00;99.90;;;;;;5093496;28;20446;-87
2021/03/22 02:48:56;;;;;;;14.87;4.33;;;3.00;99.90;;;;;;5093500;28;20565;-87
2021/03/22 02:51:36;;;;;;;17.10;4.60;;;3.00;99.90;;;;;;5097690;28;20487;-86
2021/03/22 02:54:15;;;;;;;18.23;3.77;;;3.00;99.90;;;;;;5094535;28;20907;-86
2021/03/22 02:56:48;;;;;;;13.87;4.10;;;3.00;99.90;;;;;;5093863;28;20491;-87
2021/03/22 02:59:20;;;;;;;18.70;4.37;;;3.00;99.90;;;;;;5093707;28;20443;-87
2021/03/22 03:01:51;;;;;;;12.13;3.63;;;3.00;99.90;;;;;;5093487;28;20531;-86
2021/03/22 03:04:18;;;;;;;15.47;3.80;;;2.90;99.90;;;;;;5093324;28;20799;-87
2021/03/22 03:06:49;;;;;;;9.03;3.60;;;3.00;99.90;;;;;;5093261;28;20467;-87
2021/03/22 03:09:18;;;;;;;14.83;3.73;;;2.90;99.90;;;;;;5093282;28;20805;-87
2021/03/22 03:11:45;;;;;;;11.60;3.13;;;3.00;99.90;;;;;;5092813;28;21071;-87
2021/03/22 03:14:12;;;;;;;11.17;3.80;;;3.00;99.90;;;;;;5093308;28;20452;-86
2021/03/22 03:16:38;;;;;;;14.93;4.13;;;3.00;99.90;;;;;;5092949;28;20463;-86
2021/03/22 03:19:05;;;;;;;16.40;4.57;;;3.00;99.90;;;;;;5093238;28;20458;-87
2021/03/22 03:21:33;;;;;;;13.93;3.97;;;3.10;99.90;;;;;;5092973;28;20935;-86
2021/03/22 03:24:00;;;;;;;8.53;4.00;;;3.00;99.90;;;;;;5092913;28;20429;-87
2021/03/22 03:26:27;;;;;;;11.97;3.40;;;3.00;99.90;;;;;;5093200;28;20439;-87
2021/03/22 03:28:53;;;;;;;13.50;3.00;;;3.10;99.90;;;;;;5093265;28;20454;-87
2021/03/22 03:31:19;;;;;;;15.60;3.53;;;3.00;99.90;;;;;;5092930;28;20483;-86
2021/03/22 03:33:46;;;;;;;11.97;2.60;;;3.00;99.90;;;;;;5095094;28;20444;-87
2021/03/22 03:36:12;;;;;;;15.10;4.37;;;3.10;99.90;;;;;;5096560;28;20486;-87
2021/03/22 03:38:39;;;;;;;9.57;3.50;;;3.10;99.90;;;;;;5096651;28;20521;-87
2021/03/22 03:41:06;;;;;;;12.17;3.90;;;3.00;99.90;;;;;;5096519;28;20444;-87
2021/03/22 03:43:32;;;;;;;13.37;4.00;;;3.00;99.90;;;;;;5096369;28;20501;-87
2021/03/22 03:45:58;;;;;;;13.77;4.30;;;3.10;99.90;;;;;;5097065;28;20501;-87
2021/03/22 03:48:26;;;;;;;12.63;3.37;;;3.10;99.90;;;;;;5096328;28;20532;-87
2021/03/22 03:50:54;;;;;;;16.30;4.20;;;3.10;99.90;;;;;;5096359;28;20452;-87
2021/03/22 03:53:20;;;;;;;17.03;4.00;;;3.00;99.90;;;;;;5096345;28;20844;-87
2021/03/22 03:55:47;;;;;;;18.87;3.90;;;3.00;99.90;;;;;;5095948;28;20480;-87
2021/03/22 03:58:14;;;;;;;16.00;3.57;;;3.00;99.90;;;;;;5096156;28;20472;-86
2021/03/22 04:00:43;;;;;;;14.40;3.10;;;3.00;99.90;;;;;;5096338;28;20452;-86
2021/03/22 04:03:28;;;;;;;17.27;3.17;;;2.90;99.90;;;;;;5095933;28;20490;-87
2021/03/22 04:05:57;;;;;;;14.83;2.70;;;3.00;99.90;;;;;;5096179;28;20424;-86
2021/03/22 04:08:25;;;;;;;11.83;3.00;;;2.90;99.90;;;;;;5096182;28;20464;-87
2021/03/22 04:10:51;;;;;;;16.13;4.13;;;3.00;99.90;;;;;;5095976;28;20448;-87
2021/03/22 04:13:19;;;;;;;15.73;3.87;;;2.90;99.90;;;;;;5095643;28;21100;-87
2021/03/22 04:15:45;;;;;;;16.73;3.77;;;2.90;99.90;;;;;;5095948;28;20448;-87
2021/03/22 04:18:12;;;;;;;15.90;3.60;;;3.00;99.90;;;;;;5095824;28;20520;-86
2021/03/22 04:20:40;;;;;;;14.63;3.20;;;2.90;99.90;;;;;;5095339;28;20451;-87
2021/03/22 04:23:07;;;;;;;14.60;4.00;;;3.00;99.90;;;;;;5095889;28;20444;-87
2021/03/22 04:25:33;;;;;;;13.30;2.90;;;3.00;99.90;;;;;;5095813;28;20471;-87
2021/03/22 04:27:59;;;;;;;13.13;3.63;;;3.00;99.90;;;;;;5095595;28;20482;-87
2021/03/22 04:30:27;;;;;;;23.27;3.70;;;3.00;99.90;;;;;;5095242;28;20840;-87
2021/03/22 04:32:54;;;;;;;21.00;3.70;;;3.00;99.90;;;;;;5095474;28;20475;-87
2021/03/22 04:35:21;;;;;;;11.47;3.13;;;3.00;99.90;;;;;;5095669;28;20460;-86
2021/03/22 04:37:48;;;;;;;14.87;3.80;;;3.10;99.90;;;;;;5095109;28;20455;-87
2021/03/22 04:40:15;;;;;;;14.40;3.40;;;3.10;99.90;;;;;;5095503;28;20848;-87
2021/03/22 04:42:42;;;;;;;8.90;3.60;;;3.00;99.90;;;;;;5095147;28;20440;-87
2021/03/22 04:45:09;;;;;;;19.80;4.57;;;3.00;99.90;;;;;;5094875;28;20448;-87
2021/03/22 04:47:36;;;;;;;14.23;3.43;;;3.00;99.90;;;;;;5094998;28;20468;-87
2021/03/22 04:50:05;;;;;;;9.23;3.33;;;3.00;99.90;;;;;;5095453;28;20423;-87
2021/03/22 04:52:31;;;;;;;11.20;2.60;;;3.00;99.90;;;;;;5095154;28;20472;-86
2021/03/22 04:54:57;;;;;;;9.87;3.10;;;3.00;99.90;;;;;;5094862;28;20440;-86
2021/03/22 04:57:27;;;;;;;12.93;3.47;;;3.00;99.90;;;;;;5095089;28;20825;-87
2021/03/22 04:59:53;;;;;;;12.03;3.00;;;2.90;99.90;;;;;;5097446;28;20502;-86
2021/03/22 05:02:20;;;;;;;13.00;3.83;;;2.90;99.90;;;;;;5096314;28;20962;-86
2021/03/22 05:04:47;;;;;;;6.30;3.30;;;3.00;99.90;;;;;;5095996;28;20839;-87
2021/03/22 05:07:14;;;;;;;18.23;3.20;;;2.90;99.90;;;;;;5095403;28;20475;-87
2021/03/22 05:09:41;;;;;;;13.93;3.93;;;2.90;99.90;;;;;;5095062;28;20447;-86
2021/03/22 05:12:08;;;;;;;8.60;3.67;;;2.90;99.90;;;;;;5094612;28;20510;-86
2021/03/22 05:14:34;;;;;;;10.57;3.47;;;2.90;99.90;;;;;;5094751;28;20440;-87
2021/03/22 05:17:01;;;;;;;15.10;3.67;;;2.90;99.90;;;;;;5094786;28;20545;-87
2021/03/22 05:19:27;;;;;;;13.43;3.60;;;2.90;99.90;;;;;;5094664;28;20501;-86
2021/03/22 05:21:56;;;;;;;11.10;3.30;;;2.90;99.90;;;;;;5094646;28;20501;-86
2021/03/22 05:24:23;;;;;;;21.73;3.37;;;2.90;99.90;;;;;;5094678;28;20459;-87
2021/03/22 05:26:50;;;;;;;18.53;4.00;;;2.90;99.90;;;;;;5094496;28;20474;-86
2021/03/22 05:29:16;;;;;;;13.00;3.10;;;2.90;99.90;;;;;;5094527;28;20494;-86
2021/03/22 05:31:42;;;;;;;9.10;3.60;;;2.90;99.90;;;;;;5094309;28;20512;-87
2021/03/22 05:34:09;;;;;;;8.97;3.40;;;2.90;99.90;;;;;;5094152;28;20447;-86
2021/03/22 05:36:35;;;;;;;16.73;3.57;;;2.90;99.90;;;;;;5094551;28;20448;-87
2021/03/22 05:39:03;;;;;;;12.90;3.40;;;2.90;99.90;;;;;;5094316;28;20447;-87
2021/03/22 05:41:36;;;;;;;8.07;2.90;;;2.90;99.90;;;;;;5094599;28;20816;-86
2021/03/22 05:44:13;;;;;;;9.30;3.20;;;2.90;99.90;;;;;;5094438;28;20845;-87
2021/03/22 05:46:48;;;;;;;13.03;3.27;;;2.90;99.90;;;;;;5094212;28;20540;-87
2021/03/22 05:49:39;;;;;;;11.40;2.93;;;3.00;99.90;;;;;;5095564;28;20849;-86
2021/03/22 05:52:34;;;;;;;7.57;2.67;;;3.00;99.90;;;;;;5094292;28;20952;-87
2021/03/22 05:55:07;;;;;;;13.67;4.33;;;3.00;99.90;;;;;;5093783;28;20432;-86
2021/03/22 05:57:49;;;;;;;13.00;4.63;;;3.00;99.90;;;;;;5093677;28;20460;-87
2021/03/22 06:00:21;;;;;;;10.80;2.80;;;3.00;99.90;;;;;;5093824;28;20976;-87
2021/03/22 06:02:55;;;;;;;10.83;3.17;;;3.00;99.90;;;;;;5094041;28;20424;-87
2021/03/22 06:05:34;;;;;;;12.70;4.03;;;3.10;99.90;;;;;;5096137;28;20842;-87
2021/03/22 06:08:05;;;;;;;16.70;4.70;;;3.00;99.90;;;;;;5094067;28;20471;-87
2021/03/22 06:10:42;;;;;;;20.67;3.70;;;3.00;99.90;;;;;;5095037;28;20785;-86
2021/03/22 06:13:09;;;;;;;11.90;3.57;;;3.00;99.90;;;;;;5099456;28;20474;-86
2021/03/22 06:15:44;;;;;;;16.87;3.57;;;3.00;99.90;;;;;;5093929;28;20451;-87
2021/03/22 06:18:22;;;;;;;9.33;3.33;;;3.10;99.90;;;;;;5093742;28;20455;-87
2021/03/22 06:20:53;;;;;;;19.97;3.70;;;3.10;99.90;;;;;;5093881;28;20436;-87
2021/03/22 06:23:22;;;;;;;10.70;2.90;;;3.10;99.90;;;;;;5094059;28;20409;-86
2021/03/22 06:25:50;;;;;;;12.77;4.00;;;3.10;99.90;;;;;;5093410;28;20452;-86
2021/03/22 06:28:21;;;;;;;13.77;3.40;;;3.10;99.90;;;;;;5093616;28;20468;-87
2021/03/22 06:31:03;;;;;;;11.00;3.30;;;3.10;99.90;;;;;;5093679;28;20432;-87
2021/03/22 06:33:35;;;;;;;10.30;3.37;;;3.20;99.90;;;;;;5093636;28;20466;-87
2021/03/22 06:36:01;;;;;;;20.43;3.63;;;3.20;99.90;;;;;;5093318;28;20981;-86
2021/03/22 06:38:27;;;;;;;6.43;3.10;;;3.30;99.90;;;;;;5093642;28;20480;-87
2021/03/22 06:40:55;;;;;;;19.10;3.63;;;3.30;99.90;;;;;;5093533;28;20792;-87
2021/03/22 06:43:24;;;;;;;7.07;3.47;;;3.30;99.90;;;;;;5093523;28;20444;-87
2021/03/22 06:45:52;;;;;;;9.43;3.47;;;3.40;99.90;;;;;;5093525;28;20809;-86
2021/03/22 06:48:25;;;;;;;19.50;5.00;;;3.40;99.90;;;;;;5094038;28;20460;-87
2021/03/22 06:50:53;;;;;;;10.60;3.07;;;3.40;99.90;;;;;;5093221;28;20429;-87
2021/03/22 06:53:35;;;;;;;16.17;2.93;;;3.30;99.90;;;;;;5093582;28;20460;-87
2021/03/22 06:56:19;;;;;;;7.80;3.33;;;3.40;99.90;;;;;;5093769;28;20486;-87
2021/03/22 06:58:47;;;;;;;9.90;2.67;;;3.40;99.90;;;;;;5094123;28;20436;-87
2021/03/22 07:01:26;;;;;;;16.93;3.53;;;3.50;99.90;;;;;;5093580;28;20518;-87
2021/03/22 07:03:53;;;;;;;10.33;3.40;;;3.50;99.90;;;;;;5093354;28;20907;-87
2021/03/22 07:06:22;;;;;;;10.17;3.17;;;3.50;99.90;;;;;;5093415;28;20459;-87
2021/03/22 07:08:49;;;;;;;11.20;3.80;;;3.50;99.90;;;;;;5100496;28;20447;-86
2021/03/22 07:11:19;;;;;;;12.17;2.70;;;3.50;99.90;;;;;;5099350;28;20539;-87
2021/03/22 07:13:54;;;;;;;16.80;3.63;;;3.50;99.90;;;;;;5098234;28;20443;-87
2021/03/22 07:16:23;;;;;;;11.73;2.33;;;3.60;99.90;;;;;;5097217;28;20439;-87
2021/03/22 07:19:15;;;;;;;9.17;2.70;;;3.60;99.90;;;;;;5096964;28;20444;-87
2021/03/22 07:21:50;;;;;;;10.93;2.80;;;3.50;99.90;;;;;;5097022;28;20432;-86
2021/03/22 07:24:24;;;;;;;10.87;3.17;;;3.50;99.90;;;;;;5096930;28;20466;-87
2021/03/22 07:27:04;;;;;;;11.60;3.23;;;3.60;99.90;;;;;;5096839;28;20463;-87
2021/03/22 07:30:15;;;;;;;12.53;3.13;;;3.60;99.90;;;;;;5096666;28;20432;-87
2021/03/22 07:32:48;;;;;;;4.57;3.00;;;3.60;99.90;;;;;;5089791;28;20483;-86
2021/03/22 07:36:03;;;;;;;17.90;3.90;;;3.50;99.90;;;;;;5097556;28;20427;-87
2021/03/22 07:39:03;;;;;;;10.43;2.80;;;3.50;99.90;;;;;;5096588;28;20491;-87
2021/03/22 07:41:37;;;;;;;15.67;3.50;;;3.60;99.90;;;;;;5096618;28;20447;-86
2021/03/22 07:44:21;;;;;;;9.43;3.10;;;3.60;99.90;;;;;;5096894;28;20435;-87
2021/03/22 07:47:00;;;;;;;9.60;2.20;;;3.70;99.90;;;;;;5096950;28;20475;-87
2021/03/22 07:49:38;;;;;;;10.60;2.70;;;3.80;99.90;;;;;;5096530;28;20481;-87
2021/03/22 07:52:24;;;;;;;14.60;3.13;;;4.00;99.90;;;;;;5096365;28;20468;-87
2021/03/22 07:55:02;;;;;;;16.13;2.90;;;4.00;99.90;;;;;;5096299;28;20968;-87
2021/03/22 07:57:38;;;;;;;8.23;2.70;;;4.00;99.90;;;;;;5095875;28;21043;-87
2021/03/22 08:00:19;;;;;;;19.60;3.43;;;4.20;99.90;;;;;;5097023;28;20761;-87
2021/03/22 08:03:04;;;;;;;10.50;2.70;;;4.20;99.90;;;;;;5097440;28;20420;-87
2021/03/22 08:05:41;;;;;;;12.50;2.83;;;4.40;99.90;;;;;;5101136;28;20424;-87
2021/03/22 08:08:18;;;;;;;12.80;2.53;;;4.40;99.90;;;;;;5100179;28;20489;-87
2021/03/22 08:10:56;;;;;;;8.60;2.63;;;4.50;99.90;;;;;;5097195;28;20538;-87
2021/03/22 08:13:49;;;;;;;8.20;2.37;;;4.50;99.90;;;;;;5096008;28;20470;-87
2021/03/22 08:16:39;;;;;;;5.33;2.50;;;4.50;99.90;;;;;;5086050;28;20463;-87
2021/03/22 08:19:12;;;;;;;6.90;2.47;;;4.50;99.90;;;;;;5095246;28;20451;-87
2021/03/22 08:21:43;;;;;;;12.83;2.70;;;4.50;99.90;;;;;;5095928;28;20425;-87
2021/03/22 08:24:16;;;;;;;10.40;2.47;;;4.40;99.90;;;;;;5095982;28;20447;-87
2021/03/22 08:26:51;;;;;;;3.13;1.80;;;4.40;99.90;;;;;;5095822;28;20475;-87
2021/03/22 08:29:20;;;;;;;10.83;2.17;;;4.50;99.90;;;;;;5095944;28;20424;-87
2021/03/22 08:31:55;;;;;;;9.07;1.87;;;4.50;99.90;;;;;;5095642;28;20454;-87
2021/03/22 08:34:29;;;;;;;8.47;1.70;;;4.60;99.90;;;;;;5095701;28;20435;-87
2021/03/22 08:37:05;;;;;;;4.27;1.80;;;4.60;99.90;;;;;;5095494;28;20467;-85
2021/03/22 08:39:36;;;;;;;6.97;2.27;;;4.70;99.90;;;;;;5095706;28;20970;-87
2021/03/22 08:42:11;;;;;;;5.60;1.53;;;4.80;99.90;;;;;;5095812;28;20776;-89
2021/03/22 08:44:42;;;;;;;5.37;1.60;;;4.80;99.90;;;;;;5095574;28;20435;-88
2021/03/22 08:47:20;;;;;;;4.33;2.00;;;5.00;99.90;;;;;;5095528;28;20472;-87
2021/03/22 08:49:53;;;;;;;5.53;2.03;;;5.10;99.90;;;;;;5095153;28;20443;-85
2021/03/22 08:52:29;;;;;;;4.53;1.53;;;5.20;99.90;;;;;;5094599;28;20966;-85
2021/03/22 08:55:07;;;;;;;3.60;1.27;;;5.30;99.90;;;;;;5094709;28;20486;-85
2021/03/22 08:57:40;;;;;;;9.33;1.50;;;5.50;99.90;;;;;;5095071;28;20474;-85
2021/03/22 09:00:35;;;;;;;3.30;1.10;;;5.70;99.90;;;;;;5094934;28;20517;-85
2021/03/22 09:03:21;;;;;;;3.80;1.60;;;6.00;99.90;;;;;;5094839;28;20424;-85
2021/03/22 09:06:06;;;;;;;13.93;2.23;;;6.10;99.90;;;;;;5094704;28;20986;-85
2021/03/22 09:08:35;;;;;;;6.03;1.00;;;6.10;99.90;;;;;;5094751;28;20463;-85
2021/03/22 09:11:15;;;;;;;4.50;1.00;;;6.00;99.90;;;;;;5100688;28;20436;-85
2021/03/22 09:13:52;;;;;;;1.27;1.00;;;6.00;99.90;;;;;;5098956;28;20903;-85
2021/03/22 09:16:38;;;;;;;2.13;1.00;;;6.00;99.90;;;;;;5095456;28;20443;-85
2021/03/22 09:19:41;;;;;;;7.10;1.83;;;6.00;99.90;;;;;;5094908;28;20447;-85
2021/03/22 09:22:46;;;;;;;5.73;0.87;;;5.90;99.90;;;;;;5094636;28;20432;-85
2021/03/22 09:25:34;;;;;;;0.90;0.60;;;5.90;99.90;;;;;;5079616;28;20470;-85
2021/03/22 09:28:30;;;;;;;4.17;0.93;;;6.00;99.90;;;;;;5094020;28;20468;-85
2021/03/22 09:30:59;;;;;;;6.43;1.47;;;6.00;99.90;;;;;;5094806;28;20437;-85
2021/03/22 09:33:47;;;;;;;3.73;0.93;;;6.00;99.90;;;;;;5094492;28;20578;-88
2021/03/22 09:36:30;;;;;;;3.30;1.30;;;5.90;99.90;;;;;;5094809;28;20435;-88
2021/03/22 09:38:57;;;;;;;2.70;1.20;;;5.80;99.90;;;;;;5094820;28;20458;-88
2021/03/22 09:42:00;;;;;;;3.20;1.43;;;5.70;99.90;;;;;;5094800;28;20428;-88
2021/03/22 09:44:30;;;;;;;5.67;1.70;;;5.70;99.90;;;;;;5094193;28;20428;-87
2021/03/22 09:47:16;;;;;;;6.40;1.37;;;5.60;99.90;;;;;;5094511;28;20464;-88
2021/03/22 09:50:21;;;;;;;8.17;1.93;;;5.60;99.90;;;;;;5094671;28;20497;-88
2021/03/22 09:53:18;;;;;;;6.67;0.90;;;5.60;99.90;;;;;;5094456;28;20517;-89
2021/03/22 09:56:03;;;;;;;2.80;1.30;;;5.70;99.90;;;;;;5094233;28;20479;-88
2021/03/22 09:58:38;;;;;;;7.90;1.73;;;6.00;99.90;;;;;;5093232;28;20509;-88
2021/03/22 10:01:39;;;;;;;4.47;1.00;;;6.20;99.90;;;;;;5093921;28;20415;-88
2021/03/22 10:04:34;;;;;;;2.13;1.30;;;6.40;99.90;;;;;;5094586;28;20424;-88
2021/03/22 10:07:16;;;;;;;6.00;1.23;;;6.50;99.90;;;;;;5094094;28;20475;-88
2021/03/22 10:09:46;;;;;;;1.73;1.00;;;6.50;99.90;;;;;;5094384;28;20432;-88
2021/03/22 10:12:18;;;;;;;3.10;1.33;;;6.50;99.90;;;;;;5094246;28;20460;-88
2021/03/22 10:14:48;;;;;;;4.50;1.30;;;6.60;99.90;;;;;;5094218;28;20440;-88
2021/03/22 10:17:26;;;;;;;2.73;1.30;;;6.90;99.90;;;;;;5093860;28;20966;-89
2021/03/22 10:19:58;;;;;;;4.07;1.20;;;7.10;99.90;;;;;;5094116;28;20522;-88
2021/03/22 10:22:25;;;;;;;2.03;1.20;;;7.30;99.90;;;;;;5094891;28;20823;-88
2021/03/22 10:24:56;;;;;;;5.97;1.97;;;7.50;99.90;;;;;;5097587;28;20531;-88
2021/03/22 10:27:26;;;;;;;4.73;1.40;;;7.50;99.90;;;;;;5096420;28;20472;-88
2021/03/22 10:30:12;;;;;;;6.00;1.73;;;7.40;99.90;;;;;;5093789;28;20932;-88
2021/03/22 10:32:45;;;;;;;4.50;1.03;;;7.50;99.90;;;;;;5093732;28;20532;-88
2021/03/22 10:35:15;;;;;;;3.67;1.53;;;7.50;99.90;;;;;;5094053;28;20565;-88
2021/03/22 10:37:45;;;;;;;3.87;1.43;;;7.30;98.90;;;;;;5093909;28;20520;-88
2021/03/22 10:40:26;;;;;;;5.33;1.37;;;7.20;99.30;;;;;;5093941;28;20423;-88
2021/03/22 10:42:54;;;;;;;30.20;13.70;;;7.10;98.50;;;;;;5096442;28;20428;-88
2021/03/22 10:45:38;;;;;;;5.00;1.03;;;7.00;99.10;;;;;;5098097;28;20460;-88
2021/03/22 10:48:31;;;;;;;3.97;1.43;;;6.80;98.90;;;;;;5098076;28;20830;-88
2021/03/22 10:51:03;;;;;;;0.93;0.93;;;6.70;98.70;;;;;;5097987;28;20462;-88
2021/03/22 10:53:30;;;;;;;2.93;1.20;;;6.70;98.20;;;;;;5097517;28;20993;-85
2021/03/22 10:55:56;;;;;;;3.60;1.70;;;6.50;98.30;;;;;;5097577;28;20525;-85
2021/03/22 10:58:26;;;;;;;1.03;0.87;;;6.40;98.90;;;;;;5097169;28;20986;-88
2021/03/22 11:00:59;;;;;;;3.30;1.30;;;6.30;99.10;;;;;;5097487;28;20431;-88
2021/03/22 11:03:28;;;;;;;1.90;1.10;;;6.30;99.20;;;;;;5097741;28;20903;-88
2021/03/22 11:05:55;;;;;;;6.77;1.43;;;6.10;99.80;;;;;;5097214;28;20930;-89
2021/03/22 11:08:25;;;;;;;2.80;1.13;;;6.00;99.90;;;;;;5097753;28;20475;-88
2021/03/22 11:11:02;;;;;;;1.20;1.10;;;5.90;99.90;;;;;;5097886;28;20424;-88
2021/03/22 11:13:31;;;;;;;2.13;1.43;;;5.90;99.90;;;;;;5097161;28;20497;-88
2021/03/22 11:15:58;;;;;;;4.03;1.20;;;6.10;99.90;;;;;;5099005;28;20432;-88
2021/03/22 11:18:28;;;;;;;3.40;1.93;;;6.20;99.90;;;;;;5099658;28;20475;-88
2021/03/22 11:20:57;;;;;;;2.00;1.30;;;6.40;99.90;;;;;;5097581;28;20436;-89
2021/03/22 11:23:42;;;;;;;3.03;1.13;;;6.70;99.80;;;;;;5098312;28;20432;-88
2021/03/22 11:26:15;;;;;;;2.60;1.27;;;7.00;99.10;;;;;;5097501;28;20475;-88
2021/03/22 11:28:42;;;;;;;2.80;1.47;;;7.20;98.90;;;;;;5097873;28;20959;-87
2021/03/22 11:31:17;;;;;;;4.87;2.13;;;7.20;98.30;;;;;;5102937;28;20428;-88
2021/03/22 11:33:58;;;;;;;4.43;1.27;;;7.20;98.50;;;;;;5098791;28;20558;-88
2021/03/22 11:36:33;;;;;;;4.43;1.37;;;7.30;98.50;;;;;;5097674;28;20544;-88
2021/03/22 11:39:09;;;;;;;6.30;1.63;;;7.50;97.60;;;;;;5097327;28;20428;-88
2021/03/22 11:41:38;;;;;;;12.80;1.53;;;7.40;97.50;;;;;;5097568;28;20467;-88
2021/03/22 11:44:18;;;;;;;3.67;1.47;;;7.30;97.60;;;;;;5097150;28;20431;-89
2021/03/22 11:46:46;;;;;;;4.30;1.30;;;7.30;97.90;;;;;;5097033;28;20995;-89
2021/03/22 11:49:48;;;;;;;2.50;1.53;;;7.40;97.50;;;;;;5098801;28;20431;-89
2021/03/22 11:52:19;;;;;;;2.33;1.43;;;7.60;96.60;;;;;;5017869;28;20477;-88
2021/03/22 11:54:53;;;;;;;1.70;1.37;;;7.50;96.90;;;;;;5015504;28;20456;-88
2021/03/22 11:57:23;;;;;;;2.60;1.63;;;7.50;96.40;;;;;;5058738;28;20563;-89
2021/03/22 11:59:52;;;;;;;2.80;1.50;;;7.60;95.90;;;;;;5096569;28;20809;-89
2021/03/22 12:02:29;;;;;;;4.17;1.57;;;7.60;96.80;;;;;;5096626;28;20765;-89
2021/03/22 12:04:59;;;;;;;8.70;2.30;;;7.60;96.70;;;;;;5102452;28;20428;-88
2021/03/22 12:07:41;;;;;;;8.53;2.30;;;7.70;96.90;;;;;;5100016;28;20944;-88
2021/03/22 12:10:20;;;;;;;5.10;1.70;;;7.80;96.10;;;;;;5099283;28;20921;-88
2021/03/22 12:12:47;;;;;;;6.37;1.47;;;7.90;95.20;;;;;;5096467;28;20472;-88
2021/03/22 12:15:16;;;;;;;3.83;1.60;;;8.10;94.90;;;;;;5096168;28;20416;-88
2021/03/22 12:17:43;;;;;;;1.50;1.30;;;8.30;95.20;;;;;;5096210;28;20963;-88
2021/03/22 12:20:19;;;;;;;2.90;1.40;;;8.40;93.40;;;;;;5096361;28;20432;-88
2021/03/22 12:22:46;;;;;;;4.50;1.93;;;8.30;93.40;;;;;;5096236;28;20914;-89
2021/03/22 12:25:16;;;;;;;2.17;1.67;;;8.30;93.00;;;;;;5096007;28;21002;-89
2021/03/22 12:27:42;;;;;;;1.90;1.27;;;8.40;92.80;;;;;;5096149;28;20470;-88
2021/03/22 12:30:09;;;;;;;2.40;1.30;;;8.20;92.10;;;;;;5095748;28;20432;-88
2021/03/22 12:32:36;;;;;;;4.73;1.50;;;8.20;93.10;;;;;;5096170;28;20542;-89
2021/03/22 12:35:03;;;;;;;6.60;1.73;;;8.10;93.10;;;;;;5095771;28;20439;-89
2021/03/22 12:37:33;;;;;;;3.30;1.27;;;8.10;92.60;;;;;;5095578;28;20453;-87
2021/03/22 12:40:01;;;;;;;4.10;1.93;;;7.90;93.60;;;;;;5096124;28;20519;-88
2021/03/22 12:42:29;;;;;;;2.20;2.00;;;7.90;93.80;;;;;;5095789;28;20907;-88
2021/03/22 12:44:56;;;;;;;4.60;1.90;;;7.90;94.50;;;;;;5095821;28;20551;-89
2021/03/22 12:47:25;;;;;;;7.43;3.40;;;7.70;94.30;;;;;;5095902;28;20589;-89
2021/03/22 12:49:52;;;;;;;6.53;3.50;;;7.60;94.70;;;;;;5095684;28;20433;-89
2021/03/22 12:52:18;;;;;;;5.43;3.27;;;7.40;94.80;;;;;;5095610;28;20989;-89
2021/03/22 12:54:45;;;;;;;4.80;4.17;;;7.30;95.30;;;;;;5096343;28;20493;-88
2021/03/22 12:57:16;;;;;;;6.70;4.03;;;7.30;96.30;;;;;;5095190;28;20479;-89
2021/03/22 12:59:43;;;;;;;6.37;3.90;;;7.20;96.20;;;;;;5095265;28;20436;-89
2021/03/22 13:02:15;;;;;;;6.67;3.70;;;7.10;96.00;;;;;;5095553;28;20432;-89
2021/03/22 13:04:42;;;;;;;9.13;3.73;;;7.20;95.20;;;;;;5095051;28;20433;-89
2021/03/22 13:07:09;;;;;;;6.73;4.03;;;7.10;95.70;;;;;;5095547;28;20506;-89
2021/03/22 13:09:37;;;;;;;6.90;3.70;;;7.10;96.80;;;;;;5095725;28;20432;-89
2021/03/22 13:12:05;;;;;;;6.70;4.00;;;7.00;96.70;;;;;;5095409;28;20437;-88
2021/03/22 13:14:31;;;;;;;6.03;4.33;;;7.00;97.00;;;;;;5095394;28;20428;-89
2021/03/22 13:16:58;;;;;;;7.93;3.90;;;7.00;97.00;;;;;;5099533;28;20464;-88
2021/03/22 13:19:24;;;;;;;5.57;3.80;;;6.60;97.00;;;;;;5097370;28;20795;-88